Time;durP1;ratioP1;P1;durP2;ratioP2;P2;SDS_P1;SDS_P2;PMS_P1;PMS_P2;Temp;Humidity;BMP_temperature;BMP_pressure;BME280_temperature;BME280_humidity;BME280_pressure;Samples;Min_cycle;Max_cycle;Signal;HPM_P1;HPM_P2
2022/07/13 00:01:53;;;;;;;2.90;1.10;;;;;;;16.03;53.08;99196.91;4485497;31;20092;-68
2022/07/13 00:04:21;;;;;;;1.67;0.55;;;;;;;15.95;53.31;99200.37;4485366;32;20825;-68
2022/07/13 00:06:48;;;;;;;3.83;0.60;;;;;;;15.90;53.43;99197.41;4485402;32;20473;-68
2022/07/13 00:09:15;;;;;;;0.95;0.50;;;;;;;15.90;53.53;99203.50;4485332;32;20531;-68
2022/07/13 00:11:43;;;;;;;0.55;0.43;;;;;;;15.81;53.74;99199.19;4485363;31;20490;-68
2022/07/13 00:14:10;;;;;;;1.37;0.60;;;;;;;15.76;53.98;99212.00;4484925;32;20089;-68
2022/07/13 00:16:37;;;;;;;1.77;0.80;;;;;;;15.72;54.11;99205.38;4485685;31;20089;-68
2022/07/13 00:19:04;;;;;;;1.90;0.70;;;;;;;15.71;54.17;99199.25;4485433;31;20115;-68
2022/07/13 00:21:31;;;;;;;3.87;0.60;;;;;;;15.73;54.13;99201.75;4485549;31;20104;-68
2022/07/13 00:23:59;;;;;;;1.08;0.60;;;;;;;15.79;53.99;99201.97;4485604;31;20575;-68
2022/07/13 00:26:26;;;;;;;2.05;0.70;;;;;;;15.77;54.04;99198.66;4485226;31;20119;-68
2022/07/13 00:28:54;;;;;;;0.75;0.70;;;;;;;15.73;54.22;99199.94;4485184;31;20470;-68
2022/07/13 00:31:21;;;;;;;1.67;1.00;;;;;;;15.74;54.22;99201.59;4485434;32;20084;-68
2022/07/13 00:33:48;;;;;;;2.90;0.62;;;;;;;15.70;54.29;99202.91;4485229;31;20092;-68
2022/07/13 00:36:16;;;;;;;1.87;0.70;;;;;;;15.75;54.21;99194.50;4485137;31;20104;-68
2022/07/13 00:38:43;;;;;;;6.85;0.82;;;;;;;15.77;54.14;99184.59;4485164;31;20089;-68
2022/07/13 00:41:10;;;;;;;2.22;0.90;;;;;;;15.73;54.25;99185.91;4485236;31;20130;-68
2022/07/13 00:43:37;;;;;;;4.43;1.05;;;;;;;15.68;54.52;99178.44;4484889;32;20096;-68
2022/07/13 00:46:05;;;;;;;3.87;1.60;;;;;;;15.67;54.79;99187.38;4485139;32;20089;-68
2022/07/13 00:48:33;;;;;;;4.93;1.90;;;;;;;15.62;55.41;99187.00;4484224;32;20096;-68
2022/07/13 00:51:00;;;;;;;5.93;1.77;;;;;;;15.50;56.06;99185.66;4485223;31;20172;-68
2022/07/13 00:53:27;;;;;;;4.70;1.90;;;;;;;15.41;56.43;99175.06;4483898;32;20250;-68
2022/07/13 00:55:56;;;;;;;7.85;1.62;;;;;;;15.36;56.60;99177.34;4485045;31;20146;-68
2022/07/13 00:58:24;;;;;;;3.75;1.35;;;;;;;15.34;56.63;99181.12;4484026;32;20092;-68
2022/07/13 01:00:51;;;;;;;4.25;1.30;;;;;;;15.26;56.82;99173.97;4485150;31;20091;-68
2022/07/13 01:03:18;;;;;;;3.30;1.40;;;;;;;15.20;57.00;99175.47;4485130;32;20119;-68
2022/07/13 01:05:46;;;;;;;3.10;1.50;;;;;;;15.24;56.88;99171.50;4485058;32;20494;-68
2022/07/13 01:08:13;;;;;;;3.12;1.30;;;;;;;15.23;57.02;99172.50;4485255;32;20116;-68
2022/07/13 01:10:42;;;;;;;2.10;1.15;;;;;;;15.24;56.94;99171.50;4485084;32;20428;-68
2022/07/13 01:13:11;;;;;;;2.47;1.27;;;;;;;15.22;57.00;99177.94;4483496;32;20480;-68
2022/07/13 01:15:38;;;;;;;3.05;1.02;;;;;;;15.19;57.17;99178.25;4485041;31;20101;-68
2022/07/13 01:18:06;;;;;;;5.65;1.35;;;;;;;15.20;57.20;99177.25;4483590;32;20101;-68
2022/07/13 01:20:33;;;;;;;1.65;0.90;;;;;;;15.16;57.38;99178.56;4483581;32;20160;-68
2022/07/13 01:23:07;;;;;;;3.87;0.98;;;;;;;15.22;57.18;99175.28;4483590;32;20088;-68
2022/07/13 01:25:35;;;;;;;1.87;0.90;;;;;;;15.23;57.17;99174.28;4483382;32;20163;-68
2022/07/13 01:28:02;;;;;;;4.62;1.10;;;;;;;15.22;57.21;99172.66;4483494;32;20551;-68
2022/07/13 01:30:29;;;;;;;4.55;1.20;;;;;;;15.21;57.24;99173.62;4484736;31;20092;-68
2022/07/13 01:32:57;;;;;;;3.15;1.60;;;;;;;15.19;57.58;99167.69;4484725;31;20119;-68
2022/07/13 01:35:24;;;;;;;3.65;1.87;;;;;;;15.16;58.05;99168.00;4484609;31;20084;-68
2022/07/13 01:37:52;;;;;;;5.65;1.25;;;;;;;15.05;58.66;99167.28;4484555;31;20085;-68
2022/07/13 01:40:20;;;;;;;2.95;1.60;;;;;;;14.99;59.05;99167.91;4483413;32;20105;-68
2022/07/13 01:42:50;;;;;;;7.43;2.00;;;;;;;14.97;59.30;99164.59;4483791;32;20386;-68
2022/07/13 01:45:21;;;;;;;5.80;1.60;;;;;;;15.03;59.35;99157.88;4484925;31;20096;-68
2022/07/13 01:47:52;;;;;;;4.10;1.70;;;;;;;14.98;59.83;99158.34;4484741;31;20112;-68
2022/07/13 01:50:22;;;;;;;8.15;2.20;;;;;;;14.97;60.05;99147.94;4484446;31;20100;-68
2022/07/13 01:52:51;;;;;;;4.10;1.83;;;;;;;15.01;60.14;99155.37;4484674;31;20555;-68
2022/07/13 01:55:19;;;;;;;5.37;1.85;;;;;;;15.00;60.28;99143.16;4484202;31;20153;-68
2022/07/13 01:57:47;;;;;;;2.95;1.60;;;;;;;15.02;60.41;99145.69;4484464;31;20164;-68
2022/07/13 02:00:16;;;;;;;5.62;1.52;;;;;;;15.02;60.48;99148.31;4484659;31;20156;-68
2022/07/13 02:02:45;;;;;;;7.35;2.00;;;;;;;14.99;60.66;99146.81;4484667;31;20484;-68
2022/07/13 02:05:13;;;;;;;2.95;1.55;;;;;;;14.99;60.75;99143.31;4484182;31;20171;-68
2022/07/13 02:07:41;;;;;;;4.82;1.95;;;;;;;14.97;60.84;99138.19;4484362;31;20494;-68
2022/07/13 02:10:10;;;;;;;6.85;1.67;;;;;;;14.93;61.03;99136.88;4484623;31;20100;-68
2022/07/13 02:12:38;;;;;;;5.85;1.75;;;;;;;14.87;61.23;99150.69;4484085;31;20092;-68
2022/07/13 02:15:06;;;;;;;5.45;1.40;;;;;;;14.92;61.18;99147.59;4484046;32;20077;-68
2022/07/13 02:17:34;;;;;;;3.55;1.48;;;;;;;14.84;61.45;99143.09;4483967;31;20564;-68
2022/07/13 02:20:02;;;;;;;8.00;2.12;;;;;;;14.76;61.84;99146.50;4483948;32;20096;-68
2022/07/13 02:22:45;;;;;;;6.00;1.62;;;;;;;14.83;61.71;99151.97;4483897;31;20164;-68
2022/07/13 02:25:13;;;;;;;5.18;1.77;;;;;;;14.78;62.01;99151.62;4483880;32;20081;-68
2022/07/13 02:27:41;;;;;;;1.80;1.30;;;;;;;14.80;62.04;99152.28;4483798;31;20215;-68
2022/07/13 02:30:10;;;;;;;2.95;1.55;;;;;;;14.77;62.16;99147.31;4484134;31;20108;-68
2022/07/13 02:32:38;;;;;;;4.93;1.60;;;;;;;14.71;62.32;99144.31;4483711;31;20123;-68
2022/07/13 02:35:05;;;;;;;2.45;1.40;;;;;;;14.68;62.41;99138.53;4483874;32;20136;-68
2022/07/13 02:37:34;;;;;;;5.47;1.77;;;;;;;14.69;62.44;99146.28;4483778;31;20111;-68
2022/07/13 02:40:04;;;;;;;7.12;1.50;;;;;;;14.65;62.51;99142.28;4483886;31;20101;-68
2022/07/13 02:42:31;;;;;;;3.90;2.03;;;;;;;14.61;62.67;99138.31;4483261;31;20167;-68
2022/07/13 02:44:58;;;;;;;6.65;2.17;;;;;;;14.59;62.81;99139.41;4483955;31;20101;-68
2022/07/13 02:47:26;;;;;;;8.88;1.87;;;;;;;14.58;62.87;99143.88;4483552;31;20101;-68
2022/07/13 02:49:53;;;;;;;3.65;1.92;;;;;;;14.60;62.86;99141.91;4483885;32;20116;-68
2022/07/13 02:52:21;;;;;;;8.77;2.60;;;;;;;14.51;63.16;99143.62;4483801;31;20161;-68
2022/07/13 02:54:48;;;;;;;2.33;1.42;;;;;;;14.48;63.37;99145.75;4484693;31;20076;-68
2022/07/13 02:57:15;;;;;;;3.35;1.60;;;;;;;14.39;63.66;99144.88;4486095;32;20135;-68
2022/07/13 02:59:43;;;;;;;4.45;1.37;;;;;;;14.34;63.86;99142.69;4486275;31;20183;-68
2022/07/13 03:02:11;;;;;;;3.92;1.60;;;;;;;14.27;64.05;99146.91;4485847;31;20152;-68
2022/07/13 03:04:38;;;;;;;2.15;1.35;;;;;;;14.28;64.05;99145.94;4486139;32;20122;-68
2022/07/13 03:07:06;;;;;;;4.80;1.73;;;;;;;14.26;64.21;99145.28;4485958;31;20153;-68
2022/07/13 03:09:34;;;;;;;4.95;1.45;;;;;;;14.23;64.36;99145.56;4486245;31;20100;-68
2022/07/13 03:12:01;;;;;;;5.07;2.03;;;;;;;14.23;64.26;99145.56;4485939;31;20084;-68
2022/07/13 03:14:29;;;;;;;2.47;1.50;;;;;;;14.33;63.87;99142.84;4485780;31;20092;-68
2022/07/13 03:16:57;;;;;;;1.50;1.02;;;;;;;14.30;63.63;99151.06;4486058;32;20149;-68
2022/07/13 03:19:24;;;;;;;2.45;1.60;;;;;;;14.46;62.94;99147.72;4485642;32;20092;-68
2022/07/13 03:21:51;;;;;;;2.67;1.35;;;;;;;14.57;62.60;99142.22;4485725;31;20096;-68
2022/07/13 03:24:18;;;;;;;4.68;1.60;;;;;;;14.52;62.88;99149.75;4486073;32;20089;-68
2022/07/13 03:26:45;;;;;;;2.33;1.30;;;;;;;14.51;62.98;99148.09;4485776;32;20088;-68
2022/07/13 03:29:13;;;;;;;5.53;1.33;;;;;;;14.57;62.66;99146.66;4485851;32;20096;-68
2022/07/13 03:31:41;;;;;;;3.87;1.12;;;;;;;14.68;62.16;99144.62;4484369;32;20096;-68
2022/07/13 03:34:09;;;;;;;2.95;1.55;;;;;;;14.90;61.14;99143.28;4485833;31;20373;-68
2022/07/13 03:36:36;;;;;;;2.20;1.30;;;;;;;14.99;60.81;99146.81;4485785;32;20104;-68
2022/07/13 03:39:04;;;;;;;2.20;1.30;;;;;;;15.10;60.46;99144.88;4485948;31;20159;-68
2022/07/13 03:41:31;;;;;;;3.35;1.30;;;;;;;15.17;60.13;99148.53;4485938;31;20150;-68
2022/07/13 03:43:59;;;;;;;1.90;1.23;;;;;;;15.26;59.83;99150.22;4485658;31;20503;-68
2022/07/13 03:46:26;;;;;;;3.10;1.30;;;;;;;15.31;59.50;99145.31;4485684;31;20096;-68
2022/07/13 03:48:53;;;;;;;2.15;1.25;;;;;;;15.39;59.29;99142.69;4485576;32;20123;-68
2022/07/13 03:51:21;;;;;;;2.20;1.30;;;;;;;15.43;59.27;99151.16;4485850;32;20096;-68
2022/07/13 03:53:48;;;;;;;3.28;1.77;;;;;;;15.34;59.61;99145.00;4485569;31;20507;-68
2022/07/13 03:56:16;;;;;;;5.00;1.52;;;;;;;15.32;59.79;99144.34;4485669;31;20450;-68
2022/07/13 03:58:43;;;;;;;1.27;1.15;;;;;;;15.35;59.79;99140.53;4485414;32;20105;-68
2022/07/13 04:01:10;;;;;;;3.70;1.50;;;;;;;15.32;59.83;99143.50;4485639;32;20415;-68
2022/07/13 04:03:38;;;;;;;1.90;1.20;;;;;;;15.37;59.61;99143.84;4485356;32;20163;-68
2022/07/13 04:06:05;;;;;;;4.20;1.02;;;;;;;15.47;59.21;99151.62;4485291;32;20533;-68
2022/07/13 04:08:33;;;;;;;3.83;1.10;;;;;;;15.53;58.87;99154.47;4485632;31;20493;-68
2022/07/13 04:11:02;;;;;;;1.20;0.90;;;;;;;15.60;58.17;99149.38;4485802;32;20088;-68
2022/07/13 04:13:29;;;;;;;2.97;0.90;;;;;;;15.73;57.71;99149.75;4485262;31;20096;-68
2022/07/13 04:15:57;;;;;;;4.10;0.85;;;;;;;15.91;57.01;99140.91;4485631;31;20146;-68
2022/07/13 04:18:26;;;;;;;1.15;0.90;;;;;;;16.05;56.49;99137.63;4485426;31;20143;-68
2022/07/13 04:20:54;;;;;;;2.17;1.00;;;;;;;16.13;56.12;99139.47;4485679;32;20118;-70
2022/07/13 04:23:21;;;;;;;2.45;1.48;;;;;;;16.20;55.90;99142.25;4484042;32;20080;-70
2022/07/13 04:25:49;;;;;;;2.22;0.85;;;;;;;16.28;55.55;99139.63;4485403;32;20100;-70
2022/07/13 04:28:16;;;;;;;4.78;1.17;;;;;;;16.37;55.33;99141.28;4485385;31;20749;-70
2022/07/13 04:30:43;;;;;;;6.90;1.15;;;;;;;16.47;55.09;99135.81;4485530;32;20601;-70
2022/07/13 04:33:10;;;;;;;1.73;1.02;;;;;;;16.53;54.87;99139.63;4485360;32;20104;-70
2022/07/13 04:35:38;;;;;;;1.90;1.20;;;;;;;16.55;54.72;99150.84;4485486;31;20089;-70
2022/07/13 04:38:05;;;;;;;1.42;0.95;;;;;;;16.74;54.28;99144.41;4485229;32;20084;-70
2022/07/13 04:40:33;;;;;;;3.50;0.88;;;;;;;16.80;53.80;99152.47;4485259;32;20088;-70
2022/07/13 04:43:01;;;;;;;3.03;1.05;;;;;;;16.99;53.51;99150.50;4484986;32;20110;-70
2022/07/13 04:45:28;;;;;;;3.53;0.93;;;;;;;17.25;52.66;99138.84;4485253;32;20116;-70
2022/07/13 04:47:56;;;;;;;1.85;0.85;;;;;;;17.50;51.71;99139.56;4485344;32;20165;-70
2022/07/13 04:50:24;;;;;;;1.20;0.93;;;;;;;17.83;50.67;99145.50;4485518;32;20095;-70
2022/07/13 04:52:52;;;;;;;1.25;0.90;;;;;;;18.06;50.17;99152.69;4485105;31;20093;-70
2022/07/13 04:55:20;;;;;;;1.60;0.98;;;;;;;18.14;49.82;99144.69;4485229;31;20551;-70
2022/07/13 04:57:47;;;;;;;1.98;1.10;;;;;;;18.14;49.82;99149.16;4484954;31;20122;-70
2022/07/13 05:00:16;;;;;;;4.55;1.25;;;;;;;18.00;50.19;99154.25;4485020;32;20091;-70
2022/07/13 05:02:44;;;;;;;2.55;0.82;;;;;;;18.00;50.02;99154.25;4484864;32;20114;-71
2022/07/13 05:05:11;;;;;;;2.50;0.80;;;;;;;17.86;50.55;99147.81;4483871;31;20097;-70
2022/07/13 05:07:38;;;;;;;1.25;0.88;;;;;;;17.93;50.54;99153.28;4484950;31;20160;-70
2022/07/13 05:10:07;;;;;;;2.92;1.17;;;;;;;17.90;50.59;99148.34;4484874;31;20145;-70
2022/07/13 05:12:39;;;;;;;8.63;1.05;;;;;;;17.85;50.85;99148.84;4484660;31;20096;-70
2022/07/13 05:15:09;;;;;;;2.00;1.12;;;;;;;17.89;50.87;99152.78;4485045;32;20100;-70
2022/07/13 05:17:36;;;;;;;1.80;1.10;;;;;;;17.91;51.04;99158.78;4483958;31;20164;-70
2022/07/13 05:20:04;;;;;;;3.95;1.27;;;;;;;18.01;50.66;99161.19;4484431;32;20100;-70
2022/07/13 05:22:32;;;;;;;4.25;1.70;;;;;;;17.96;50.62;99163.53;4485232;31;20101;-70
2022/07/13 05:24:59;;;;;;;3.35;1.02;;;;;;;18.03;50.62;99164.50;4485043;32;20165;-70
2022/07/13 05:27:27;;;;;;;1.55;1.00;;;;;;;18.07;50.42;99162.31;4485009;31;20096;-70
2022/07/13 05:29:54;;;;;;;6.18;1.45;;;;;;;18.11;50.70;99158.31;4485062;31;20097;-70
2022/07/13 05:32:22;;;;;;;3.42;1.12;;;;;;;18.13;51.21;99155.50;4484741;31;20084;-70
2022/07/13 05:34:49;;;;;;;2.92;1.23;;;;;;;18.21;50.58;99156.25;4483347;31;20450;-70
2022/07/13 05:37:17;;;;;;;4.20;1.12;;;;;;;18.32;50.27;99157.66;4469026;32;20112;-71
2022/07/13 05:39:45;;;;;;;4.32;1.35;;;;;;;18.50;49.68;99159.16;4468917;32;20450;-71
2022/07/13 05:42:13;;;;;;;2.62;1.15;;;;;;;18.54;50.51;99169.25;4468934;32;20155;-72
2022/07/13 05:44:42;;;;;;;4.57;1.12;;;;;;;18.65;50.40;99161.88;4479246;32;20127;-72
2022/07/13 05:47:10;;;;;;;6.90;1.35;;;;;;;18.66;50.17;99161.69;4484925;31;20454;-72
2022/07/13 05:49:37;;;;;;;2.47;1.30;;;;;;;18.83;49.94;99170.31;4484868;31;20476;-73
2022/07/13 05:52:06;;;;;;;4.15;1.48;;;;;;;18.88;49.04;99173.31;4484849;32;20480;-73
2022/07/13 05:54:33;;;;;;;1.42;1.10;;;;;;;18.87;49.44;99162.87;4484680;31;20099;-72
2022/07/13 05:57:11;;;;;;;2.45;1.10;;;;;;;18.90;49.84;99167.81;4484464;32;20111;-72
2022/07/13 05:59:38;;;;;;;10.32;2.83;;;;;;;18.99;49.24;99168.56;4483226;31;20097;-72
2022/07/13 06:02:05;;;;;;;2.72;1.10;;;;;;;18.86;49.72;99169.97;4484560;31;20092;-72
2022/07/13 06:04:33;;;;;;;3.65;1.17;;;;;;;19.01;49.29;99166.53;4482283;32;20120;-72
2022/07/13 06:07:00;;;;;;;2.40;1.20;;;;;;;19.08;49.55;99167.47;4481362;32;20492;-72
2022/07/13 06:09:27;;;;;;;3.35;1.30;;;;;;;19.21;49.26;99172.13;4483874;31;20096;-71
2022/07/13 06:11:55;;;;;;;7.03;1.30;;;;;;;19.35;48.86;99173.13;4484196;31;20089;-71
2022/07/13 06:14:22;;;;;;;2.50;1.15;;;;;;;19.49;48.56;99162.50;4483544;31;20446;-71
2022/07/13 06:16:49;;;;;;;2.55;1.17;;;;;;;19.46;48.11;99168.19;4484256;31;20550;-71
2022/07/13 06:19:16;;;;;;;2.60;1.10;;;;;;;19.51;48.19;99162.31;4483832;32;20076;-70
2022/07/13 06:21:44;;;;;;;3.87;1.60;;;;;;;19.59;47.45;99164.88;4484031;31;20362;-71
2022/07/13 06:24:11;;;;;;;2.70;1.30;;;;;;;19.81;47.17;99162.28;4483638;32;20108;-71
2022/07/13 06:26:38;;;;;;;6.70;1.27;;;;;;;19.88;46.80;99163.19;4484024;31;20450;-71
2022/07/13 06:29:05;;;;;;;2.20;1.10;;;;;;;19.99;47.15;99165.34;4484839;31;20115;-71
2022/07/13 06:31:33;;;;;;;1.17;0.77;;;;;;;20.07;45.94;99166.25;4486451;31;20119;-71
2022/07/13 06:34:00;;;;;;;1.45;0.90;;;;;;;20.05;45.96;99163.78;4485926;31;20115;-71
2022/07/13 06:36:27;;;;;;;2.42;1.62;;;;;;;20.09;46.47;99166.88;4486220;31;20136;-71
2022/07/13 06:38:55;;;;;;;2.85;1.20;;;;;;;20.29;45.85;99175.88;4486119;31;20458;-71
2022/07/13 06:41:22;;;;;;;3.03;1.50;;;;;;;20.30;45.74;99177.53;4486166;31;20088;-71
2022/07/13 06:43:49;;;;;;;3.10;1.45;;;;;;;20.30;46.35;99174.88;4485308;31;20143;-71
2022/07/13 06:46:16;;;;;;;3.37;1.15;;;;;;;20.51;46.21;99168.69;4486215;31;20096;-71
2022/07/13 06:48:52;;;;;;;1.37;1.10;;;;;;;20.63;45.91;99162.87;4486014;32;20449;-71
2022/07/13 06:51:19;;;;;;;1.87;1.17;;;;;;;20.80;45.32;99174.91;4486038;31;20531;-71
2022/07/13 06:53:46;;;;;;;4.43;1.17;;;;;;;20.92;45.31;99176.03;4486011;31;20111;-71
2022/07/13 06:56:13;;;;;;;2.67;1.17;;;;;;;21.11;45.48;99178.19;4485980;32;20149;-71
2022/07/13 06:58:41;;;;;;;1.42;0.95;;;;;;;21.14;44.69;99185.81;4485930;31;20100;-71
2022/07/13 07:01:08;;;;;;;2.15;1.00;;;;;;;21.38;44.95;99182.66;4485957;31;20096;-70
2022/07/13 07:03:35;;;;;;;4.78;1.05;;;;;;;21.49;44.33;99185.78;4485876;31;20092;-69
2022/07/13 07:06:04;;;;;;;2.58;0.90;;;;;;;21.49;43.96;99185.78;4485861;32;20157;-69
2022/07/13 07:08:31;;;;;;;3.55;1.00;;;;;;;21.64;43.55;99185.69;4485350;31;20461;-69
2022/07/13 07:10:58;;;;;;;1.83;1.05;;;;;;;21.62;43.12;99175.22;4485604;31;20097;-69
2022/07/13 07:13:25;;;;;;;1.48;0.98;;;;;;;21.71;43.77;99181.19;4485419;31;20088;-69
2022/07/13 07:15:52;;;;;;;2.05;1.00;;;;;;;21.95;42.48;99182.50;4486048;31;20092;-69
2022/07/13 07:18:24;;;;;;;2.17;1.10;;;;;;;21.88;42.40;99179.00;4485597;32;20519;-68
2022/07/13 07:20:52;;;;;;;1.77;0.90;;;;;;;21.98;42.14;99187.41;4485923;31;20076;-69
2022/07/13 07:23:19;;;;;;;4.10;1.10;;;;;;;21.95;42.20;99179.81;4485486;31;20476;-69
2022/07/13 07:25:46;;;;;;;2.05;1.10;;;;;;;21.80;42.70;99188.81;4485984;31;20584;-69
2022/07/13 07:28:13;;;;;;;3.42;1.58;;;;;;;21.83;42.80;99181.44;4485843;31;20088;-69
2022/07/13 07:30:40;;;;;;;1.23;0.93;;;;;;;21.95;42.54;99171.81;4485680;31;20088;-69
2022/07/13 07:33:08;;;;;;;4.47;1.30;;;;;;;22.08;42.40;99168.38;4485914;32;20139;-70
2022/07/13 07:35:35;;;;;;;5.78;1.08;;;;;;;22.32;42.21;99165.16;4485766;31;20092;-70
2022/07/13 07:38:02;;;;;;;4.87;1.23;;;;;;;22.46;41.64;99157.97;4485436;31;20084;-69
2022/07/13 07:40:29;;;;;;;1.37;1.00;;;;;;;22.47;41.13;99162.28;4484651;31;20088;-69
2022/07/13 07:42:56;;;;;;;3.47;1.17;;;;;;;22.45;42.46;99158.19;4485428;31;20109;-70
2022/07/13 07:45:24;;;;;;;3.33;0.90;;;;;;;22.53;40.96;99154.47;4485670;31;20092;-69
2022/07/13 07:47:52;;;;;;;2.85;1.42;;;;;;;22.58;41.24;99157.38;4485700;31;20093;-69
2022/07/13 07:50:19;;;;;;;3.20;1.10;;;;;;;22.64;40.83;99151.22;4485910;31;20115;-69
2022/07/13 07:52:46;;;;;;;2.20;1.00;;;;;;;22.74;41.28;99148.09;4485222;31;20108;-69
2022/07/13 07:55:20;;;;;;;2.95;1.10;;;;;;;22.96;40.33;99143.34;4485391;31;20126;-69
2022/07/13 07:57:52;;;;;;;1.80;0.93;;;;;;;23.21;40.45;99162.25;4485273;31;20936;-70
2022/07/13 08:00:19;;;;;;;5.70;1.10;;;;;;;23.43;40.21;99167.31;4485449;31;20446;-71
2022/07/13 08:02:47;;;;;;;2.55;1.00;;;;;;;23.44;40.03;99166.28;4483883;32;20097;-69
2022/07/13 08:05:15;;;;;;;3.00;0.95;;;;;;;23.45;39.71;99155.41;4485423;31;20100;-69
2022/07/13 08:07:43;;;;;;;3.70;1.00;;;;;;;23.36;39.86;99151.28;4485642;31;20794;-71
2022/07/13 08:10:12;;;;;;;3.95;0.90;;;;;;;23.50;39.51;99155.56;4485390;31;20176;-72
2022/07/13 08:12:58;;;;;;;3.37;0.90;;;;;;;23.75;39.68;99146.81;4485092;31;20122;-71
2022/07/13 08:15:26;;;;;;;7.55;1.30;;;;;;;23.98;39.08;99143.62;4485383;32;20530;-71
2022/07/13 08:17:55;;;;;;;3.70;0.90;;;;;;;23.82;39.09;99142.25;4485124;31;20104;-71
2022/07/13 08:20:22;;;;;;;1.10;1.00;;;;;;;24.05;38.93;99144.41;4485200;31;20080;-71
2022/07/13 08:22:50;;;;;;;4.93;1.10;;;;;;;24.07;38.79;99145.03;4485224;31;20123;-71
2022/07/13 08:25:17;;;;;;;3.83;0.75;;;;;;;24.13;39.01;99140.63;4485436;31;20100;-71
2022/07/13 08:27:44;;;;;;;3.25;0.75;;;;;;;24.17;38.51;99149.06;4485265;31;20092;-71
2022/07/13 08:30:12;;;;;;;4.25;0.82;;;;;;;24.27;38.41;99139.53;4485241;31;20095;-71
2022/07/13 08:32:40;;;;;;;1.52;0.90;;;;;;;24.15;38.57;99133.22;4484871;31;20104;-71
2022/07/13 08:40:41;;;;;;;7.28;1.10;;;;;;;24.71;37.62;99133.41;4485198;32;20151;-71
2022/07/13 08:43:09;;;;;;;1.50;0.98;;;;;;;24.76;37.77;99142.44;4484870;32;20103;-71
2022/07/13 08:45:36;;;;;;;3.28;1.00;;;;;;;24.77;37.49;99125.31;4485139;31;20168;-71
2022/07/13 08:48:16;;;;;;;3.28;1.00;;;;;;;24.50;37.68;99116.69;4484973;31;20159;-71
2022/07/13 08:50:44;;;;;;;6.15;1.08;;;;;;;24.62;37.95;99124.84;4485118;32;20476;-71
2022/07/13 08:53:12;;;;;;;1.25;1.00;;;;;;;25.00;37.66;99113.12;4483910;32;20560;-71
2022/07/13 08:55:40;;;;;;;5.65;0.88;;;;;;;25.09;37.30;99114.47;4484679;31;20236;-71
2022/07/13 08:58:17;;;;;;;0.82;0.70;;;;;;;25.25;37.02;99101.50;4484889;31;20088;-71
2022/07/13 09:00:44;;;;;;;3.25;1.00;;;;;;;25.39;36.89;99107.56;4484910;31;20100;-71
2022/07/13 09:03:11;;;;;;;1.12;0.73;;;;;;;25.12;37.23;99113.22;4482681;32;20516;-71
2022/07/13 09:05:39;;;;;;;2.17;1.10;;;;;;;25.50;36.65;99109.50;4476581;32;20627;-71
2022/07/13 09:08:08;;;;;;;9.63;1.30;;;;;;;25.53;36.11;99109.03;4484300;31;20119;-71
2022/07/13 09:10:53;;;;;;;5.10;0.85;;;;;;;26.03;36.32;99099.91;4484918;31;20130;-71
2022/07/13 09:13:41;;;;;;;1.75;0.88;;;;;;;25.98;35.56;99103.28;4484118;32;20103;-71
2022/07/13 09:16:22;;;;;;;2.25;0.95;;;;;;;25.80;35.41;99103.28;4478380;31;194706;-71
2022/07/13 09:18:57;;;;;;;1.70;0.80;;;;;;;25.94;35.30;99087.81;4484598;31;20126;-71
2022/07/13 09:21:32;;;;;;;4.05;0.80;;;;;;;25.92;35.33;99108.69;4484808;31;20442;-71
2022/07/13 09:24:02;;;;;;;2.35;0.80;;;;;;;25.97;34.24;99106.97;4484707;31;20100;-71
2022/07/13 09:26:43;;;;;;;3.12;0.75;;;;;;;26.00;34.70;99086.94;4484660;31;20649;-71
2022/07/13 09:29:11;;;;;;;2.58;0.80;;;;;;;26.35;34.22;99099.59;4484931;31;20103;-71
2022/07/13 09:31:53;;;;;;;0.68;0.60;;;;;;;26.20;33.95;99100.03;4484810;31;20137;-71
2022/07/13 09:34:23;;;;;;;1.12;0.77;;;;;;;26.13;34.08;99096.63;4484687;31;20777;-71
2022/07/13 09:37:14;;;;;;;1.15;0.80;;;;;;;26.19;33.15;99103.75;4483537;32;20108;-71
2022/07/13 09:40:00;;;;;;;1.25;0.70;;;;;;;26.16;33.32;99097.00;4485037;31;20084;-71
2022/07/13 09:42:33;;;;;;;1.02;0.70;;;;;;;26.45;33.40;99104.38;4484754;31;20064;-71
2022/07/13 09:47:55;;;;;;;1.27;0.80;;;;;;;26.46;33.08;99106.03;4484623;31;20104;-71
2022/07/13 09:50:36;;;;;;;5.50;0.90;;;;;;;26.46;32.34;99098.78;4484704;32;20136;-71
2022/07/13 09:53:27;;;;;;;0.85;0.80;;;;;;;26.40;33.35;99102.37;4484667;32;20171;-71
2022/07/13 09:55:57;;;;;;;7.82;0.93;;;;;;;26.05;33.49;99095.09;4484396;32;20081;-71
2022/07/13 09:58:29;;;;;;;1.30;0.93;;;;;;;26.11;33.38;99088.00;4484215;31;20149;-71
2022/07/13 10:00:58;;;;;;;4.10;1.27;;;;;;;26.29;33.49;99085.22;4469710;32;20110;-71
2022/07/13 10:03:27;;;;;;;0.90;0.70;;;;;;;26.21;33.86;99082.88;4484773;31;20080;-71
2022/07/13 10:05:55;;;;;;;1.00;0.90;;;;;;;26.36;33.94;99079.75;4475183;31;20096;-71
2022/07/13 10:08:22;;;;;;;0.77;0.75;;;;;;;26.47;33.08;99080.81;4470683;32;20158;-71
2022/07/13 10:10:52;;;;;;;2.78;0.90;;;;;;;26.76;31.16;99089.81;4480317;32;20457;-71
2022/07/13 10:13:20;;;;;;;1.55;0.80;;;;;;;26.55;32.29;99083.94;4486102;31;20076;-71
2022/07/13 10:15:48;;;;;;;1.05;0.70;;;;;;;26.36;32.39;99083.25;4485919;31;20104;-71
2022/07/13 10:18:24;;;;;;;1.62;0.90;;;;;;;26.46;32.55;99084.53;4486353;32;20506;-71
2022/07/13 10:21:01;;;;;;;5.97;0.93;;;;;;;26.36;32.87;99080.56;4486187;31;20092;-71
2022/07/13 10:23:37;;;;;;;2.40;0.88;;;;;;;26.39;33.07;99090.84;4485028;32;20085;-71
2022/07/13 10:26:24;;;;;;;1.73;1.00;;;;;;;26.49;33.05;99084.06;4485142;32;20135;-71
2022/07/13 10:29:07;;;;;;;0.90;0.70;;;;;;;26.55;32.31;99088.50;4486047;32;20084;-71
2022/07/13 10:31:36;;;;;;;1.08;0.90;;;;;;;26.76;31.46;99078.25;4486202;31;20469;-70
2022/07/13 10:34:13;;;;;;;3.72;1.00;;;;;;;26.78;32.20;99081.50;4486131;31;20178;-71
2022/07/13 10:36:51;;;;;;;3.80;0.80;;;;;;;26.83;31.80;99089.66;4485909;31;20514;-70
2022/07/13 10:39:22;;;;;;;4.15;0.90;;;;;;;26.82;32.55;99082.69;4470511;32;20119;-71
2022/07/13 10:42:03;;;;;;;3.33;0.73;;;;;;;26.87;31.91;99086.31;4470285;32;20485;-70
2022/07/13 10:44:37;;;;;;;5.00;1.25;;;;;;;26.96;31.74;99084.03;4470431;32;20088;-71
2022/07/13 10:47:11;;;;;;;0.90;0.90;;;;;;;27.27;31.53;99092.75;4470371;32;20553;-71
2022/07/13 10:49:45;;;;;;;1.10;0.80;;;;;;;27.09;31.70;99083.78;4470477;32;20127;-71
2022/07/13 10:52:21;;;;;;;4.22;1.00;;;;;;;27.00;32.09;99090.59;4474423;32;20089;-71
2022/07/13 10:55:03;;;;;;;2.97;0.90;;;;;;;27.29;31.85;99074.50;4485572;31;20374;-71
2022/07/13 10:57:31;;;;;;;8.27;1.00;;;;;;;27.63;31.83;99071.91;4486108;31;20163;-71
2022/07/13 11:00:22;;;;;;;2.78;0.93;;;;;;;27.52;31.15;99070.91;4475621;31;20108;-71
2022/07/13 11:02:51;;;;;;;1.00;0.70;;;;;;;27.51;31.30;99073.84;4470357;32;20524;-69
2022/07/13 11:05:22;;;;;;;1.50;0.70;;;;;;;27.67;30.34;99073.06;4477467;32;20118;-68
2022/07/13 11:07:51;;;;;;;0.68;0.68;;;;;;;27.83;28.49;99065.25;4484637;32;20464;-68
2022/07/13 11:10:25;;;;;;;2.15;0.80;;;;;;;27.85;28.17;99076.63;4485633;31;20092;-68
2022/07/13 11:13:03;;;;;;;1.27;0.93;;;;;;;27.68;28.72;99076.59;4485801;32;20089;-68
2022/07/13 11:15:50;;;;;;;4.00;0.80;;;;;;;27.61;29.08;99064.09;4484788;31;20150;-68
2022/07/13 11:18:27;;;;;;;3.33;0.70;;;;;;;27.59;29.67;99065.41;4484875;31;20732;-67
2022/07/13 11:20:59;;;;;;;0.95;0.70;;;;;;;27.77;28.94;99067.88;4485933;31;20513;-68
2022/07/13 11:26:48;;;;;;;1.17;0.70;;;;;;;27.52;28.37;99068.22;4485747;32;20133;-68
2022/07/13 11:29:24;;;;;;;2.53;0.80;;;;;;;27.58;28.59;99058.38;4485450;32;20118;-68
2022/07/13 11:32:02;;;;;;;2.03;0.77;;;;;;;27.71;28.78;99062.66;4485691;31;20079;-68
2022/07/13 11:34:30;;;;;;;7.20;0.85;;;;;;;27.76;28.51;99054.66;4484882;31;20096;-68
2022/07/13 11:37:03;;;;;;;2.33;0.70;;;;;;;27.72;28.59;99053.50;4485353;31;20127;-68
2022/07/13 11:39:34;;;;;;;4.18;0.73;;;;;;;27.79;28.51;99046.09;4485208;32;20110;-68
2022/07/13 11:42:05;;;;;;;2.05;0.82;;;;;;;27.80;28.97;99056.63;4484234;32;20451;-68
2022/07/13 11:44:33;;;;;;;1.05;0.75;;;;;;;28.05;28.55;99041.16;4485290;32;20204;-68
2022/07/13 11:47:05;;;;;;;2.58;0.77;;;;;;;28.13;28.32;99040.75;4484324;32;20502;-68
2022/07/13 11:49:43;;;;;;;2.70;0.70;;;;;;;28.04;28.11;99043.06;4485639;31;20088;-68
2022/07/13 11:52:24;;;;;;;4.78;0.55;;;;;;;28.29;28.08;99039.13;4473360;32;20083;-68
2022/07/13 11:55:05;;;;;;;1.40;0.95;;;;;;;28.53;28.22;99036.22;4485381;31;20079;-68
2022/07/13 11:57:33;;;;;;;8.07;0.80;;;;;;;28.62;26.11;99037.47;4485501;32;20111;-68